sensor_id;sensor_type;location;lat;lon;timestamp;pressure;altitude;pressure_sealevel;temperature;humidity
25350;BME280;13302;48.796;11.978;2023-05-12T00:00:36;96565.13;;;13.29;42.88
25350;BME280;13302;48.796;11.978;2023-05-12T00:03:23;96572.25;;;13.30;43.19
25350;BME280;13302;48.796;11.978;2023-05-12T00:06:10;96568.31;;;13.31;43.26
25350;BME280;13302;48.796;11.978;2023-05-12T00:08:58;96567.16;;;13.32;42.87
25350;BME280;13302;48.796;11.978;2023-05-12T00:11:45;96563.56;;;13.31;43.12
25350;BME280;13302;48.796;11.978;2023-05-12T00:14:34;96559.63;;;13.32;43.07
25350;BME280;13302;48.796;11.978;2023-05-12T00:17:22;96556.84;;;13.32;43.19
25350;BME280;13302;48.796;11.978;2023-05-12T00:20:09;96560.44;;;13.33;42.92
25350;BME280;13302;48.796;11.978;2023-05-12T00:22:57;96556.44;;;13.34;43.11
25350;BME280;13302;48.796;11.978;2023-05-12T00:25:44;96556.84;;;13.32;43.05
25350;BME280;13302;48.796;11.978;2023-05-12T00:28:31;96562.00;;;13.34;42.88
25350;BME280;13302;48.796;11.978;2023-05-12T00:31:18;96558.06;;;13.35;42.88
25350;BME280;13302;48.796;11.978;2023-05-12T00:34:05;96560.84;;;13.35;42.79
25350;BME280;13302;48.796;11.978;2023-05-12T00:36:52;96550.09;;;13.33;43.19
25350;BME280;13302;48.796;11.978;2023-05-12T00:39:39;96551.69;;;13.34;43.21
25350;BME280;13302;48.796;11.978;2023-05-12T00:42:26;96551.69;;;13.34;43.10
25350;BME280;13302;48.796;11.978;2023-05-12T00:45:14;96552.88;;;13.33;42.99
25350;BME280;13302;48.796;11.978;2023-05-12T00:48:02;96556.84;;;13.32;43.25
25350;BME280;13302;48.796;11.978;2023-05-12T00:50:50;96558.81;;;13.32;43.27
25350;BME280;13302;48.796;11.978;2023-05-12T00:53:37;96546.47;;;13.29;43.29
25350;BME280;13302;48.796;11.978;2023-05-12T00:56:36;96550.06;;;13.30;43.14
25350;BME280;13302;48.796;11.978;2023-05-12T00:59:28;96545.22;;;13.27;42.96
25350;BME280;13302;48.796;11.978;2023-05-12T01:02:15;96550.41;;;13.28;43.13
25350;BME280;13302;48.796;11.978;2023-05-12T01:05:03;96543.25;;;13.27;43.16
25350;BME280;13302;48.796;11.978;2023-05-12T01:10:42;96547.97;;;13.23;43.48
25350;BME280;13302;48.796;11.978;2023-05-12T01:13:30;96547.59;;;13.25;43.36
25350;BME280;13302;48.796;11.978;2023-05-12T01:16:19;96543.22;;;13.24;43.06
25350;BME280;13302;48.796;11.978;2023-05-12T01:19:18;96548.78;;;13.24;43.41
25350;BME280;13302;48.796;11.978;2023-05-12T01:22:11;96545.19;;;13.23;43.06
25350;BME280;13302;48.796;11.978;2023-05-12T01:25:03;96538.03;;;13.22;43.45
25350;BME280;13302;48.796;11.978;2023-05-12T01:27:52;96547.16;;;13.23;43.44
25350;BME280;13302;48.796;11.978;2023-05-12T01:30:41;96547.53;;;13.21;42.99
25350;BME280;13302;48.796;11.978;2023-05-12T01:33:31;96543.97;;;13.21;43.13
25350;BME280;13302;48.796;11.978;2023-05-12T01:36:19;96534.44;;;13.22;43.22
25350;BME280;13302;48.796;11.978;2023-05-12T01:39:06;96539.19;;;13.21;43.00
25350;BME280;13302;48.796;11.978;2023-05-12T01:41:53;96541.19;;;13.21;43.25
25350;BME280;13302;48.796;11.978;2023-05-12T01:44:41;96535.66;;;13.21;43.12
25350;BME280;13302;48.796;11.978;2023-05-12T01:47:28;96543.97;;;13.21;43.08
25350;BME280;13302;48.796;11.978;2023-05-12T01:50:24;96537.22;;;13.22;43.41
25350;BME280;13302;48.796;11.978;2023-05-12T01:53:11;96534.84;;;13.20;42.93
25350;BME280;13302;48.796;11.978;2023-05-12T01:55:58;96543.16;;;13.20;43.05
25350;BME280;13302;48.796;11.978;2023-05-12T01:58:47;96540.41;;;13.20;42.88
25350;BME280;13302;48.796;11.978;2023-05-12T02:01:34;96538.78;;;13.19;43.01
25350;BME280;13302;48.796;11.978;2023-05-12T02:04:21;96543.16;;;13.20;42.97
25350;BME280;13302;48.796;11.978;2023-05-12T02:07:09;96536.81;;;13.20;43.06
25350;BME280;13302;48.796;11.978;2023-05-12T02:09:56;96533.25;;;13.19;43.17
25350;BME280;13302;48.796;11.978;2023-05-12T02:12:44;96536.81;;;13.20;43.04
25350;BME280;13302;48.796;11.978;2023-05-12T02:15:31;96532.06;;;13.20;43.14
25350;BME280;13302;48.796;11.978;2023-05-12T02:18:18;96535.22;;;13.19;42.85
25350;BME280;13302;48.796;11.978;2023-05-12T02:21:05;96530.47;;;13.19;42.96
25350;BME280;13302;48.796;11.978;2023-05-12T02:23:53;96533.66;;;13.21;42.87
25350;BME280;13302;48.796;11.978;2023-05-12T02:26:40;96532.88;;;13.21;43.18
25350;BME280;13302;48.796;11.978;2023-05-12T02:29:27;96529.28;;;13.20;43.24
25350;BME280;13302;48.796;11.978;2023-05-12T02:32:14;96533.66;;;13.21;42.88
25350;BME280;13302;48.796;11.978;2023-05-12T02:35:04;96537.22;;;13.22;42.80
25350;BME280;13302;48.796;11.978;2023-05-12T02:37:52;96522.53;;;13.21;43.03
25350;BME280;13302;48.796;11.978;2023-05-12T02:40:39;96522.53;;;13.21;42.82
25350;BME280;13302;48.796;11.978;2023-05-12T02:43:26;96522.53;;;13.21;42.80
25350;BME280;13302;48.796;11.978;2023-05-12T02:46:14;96521.78;;;13.21;42.71
25350;BME280;13302;48.796;11.978;2023-05-12T02:49:01;96526.09;;;13.18;42.71
25350;BME280;13302;48.796;11.978;2023-05-12T02:51:48;96519.72;;;13.18;43.02
25350;BME280;13302;48.796;11.978;2023-05-12T02:54:35;96514.97;;;13.18;43.00
25350;BME280;13302;48.796;11.978;2023-05-12T02:57:22;96519.72;;;13.18;42.81
25350;BME280;13302;48.796;11.978;2023-05-12T03:00:10;96519.31;;;13.16;42.68
25350;BME280;13302;48.796;11.978;2023-05-12T03:02:58;96512.59;;;13.17;42.83
25350;BME280;13302;48.796;11.978;2023-05-12T03:05:46;96513.75;;;13.16;42.91
25350;BME280;13302;48.796;11.978;2023-05-12T03:08:34;96518.16;;;13.17;42.87
25350;BME280;13302;48.796;11.978;2023-05-12T03:11:22;96516.16;;;13.17;42.88
25350;BME280;13302;48.796;11.978;2023-05-12T03:14:09;96518.91;;;13.17;42.69
25350;BME280;13302;48.796;11.978;2023-05-12T03:16:56;96516.16;;;13.17;42.82
25350;BME280;13302;48.796;11.978;2023-05-12T03:19:43;96515.38;;;13.17;42.70
25350;BME280;13302;48.796;11.978;2023-05-12T03:22:30;96514.97;;;13.18;43.03
25350;BME280;13302;48.796;11.978;2023-05-12T03:25:17;96528.06;;;13.18;42.61
25350;BME280;13302;48.796;11.978;2023-05-12T03:28:04;96516.16;;;13.17;42.88
25350;BME280;13302;48.796;11.978;2023-05-12T03:30:52;96520.94;;;13.17;42.63
25350;BME280;13302;48.796;11.978;2023-05-12T03:33:40;96526.47;;;13.17;42.83
25350;BME280;13302;48.796;11.978;2023-05-12T03:36:27;96524.06;;;13.15;42.95
25350;BME280;13302;48.796;11.978;2023-05-12T03:39:15;96525.22;;;13.14;42.94
25350;BME280;13302;48.796;11.978;2023-05-12T03:42:02;96531.94;;;13.13;43.02
25350;BME280;13302;48.796;11.978;2023-05-12T03:44:50;96522.06;;;13.12;42.58
25350;BME280;13302;48.796;11.978;2023-05-12T03:47:37;96517.66;;;13.11;42.90
25350;BME280;13302;48.796;11.978;2023-05-12T03:50:26;96517.66;;;13.11;42.94
25350;BME280;13302;48.796;11.978;2023-05-12T03:53:14;96522.41;;;13.11;42.59
25350;BME280;13302;48.796;11.978;2023-05-12T03:56:04;96521.19;;;13.08;42.80
25350;BME280;13302;48.796;11.978;2023-05-12T03:58:51;96519.16;;;13.05;42.89
25350;BME280;13302;48.796;11.978;2023-05-12T04:01:38;96522.31;;;13.04;42.89
25350;BME280;13302;48.796;11.978;2023-05-12T04:04:25;96527.06;;;13.03;43.10
25350;BME280;13302;48.796;11.978;2023-05-12T04:07:12;96526.69;;;13.05;42.71
25350;BME280;13302;48.796;11.978;2023-05-12T04:09:59;96525.09;;;13.04;43.04
25350;BME280;13302;48.796;11.978;2023-05-12T04:12:47;96525.50;;;13.06;43.05
25350;BME280;13302;48.796;11.978;2023-05-12T04:15:34;96522.72;;;13.06;42.94
25350;BME280;13302;48.796;11.978;2023-05-12T04:18:22;96527.91;;;13.07;42.91
25350;BME280;13302;48.796;11.978;2023-05-12T04:21:09;96521.56;;;13.07;42.71
25350;BME280;13302;48.796;11.978;2023-05-12T04:23:56;96525.16;;;13.07;42.89
25350;BME280;13302;48.796;11.978;2023-05-12T04:26:46;96524.34;;;13.07;42.44
25350;BME280;13302;48.796;11.978;2023-05-12T04:29:33;96531.06;;;13.06;42.54
25350;BME280;13302;48.796;11.978;2023-05-12T04:32:20;96527.47;;;13.05;42.58
25350;BME280;13302;48.796;11.978;2023-05-12T04:35:08;96529.44;;;13.05;42.90
25350;BME280;13302;48.796;11.978;2023-05-12T04:37:55;96535.81;;;13.05;42.55
25350;BME280;13302;48.796;11.978;2023-05-12T04:40:42;96544.13;;;13.05;42.71
25350;BME280;13302;48.796;11.978;2023-05-12T04:43:29;96542.56;;;13.04;42.94
25350;BME280;13302;48.796;11.978;2023-05-12T04:46:20;96539.38;;;13.06;42.82
25350;BME280;13302;48.796;11.978;2023-05-12T04:49:08;96544.94;;;13.06;42.49
25350;BME280;13302;48.796;11.978;2023-05-12T04:51:55;96542.97;;;13.06;42.89
25350;BME280;13302;48.796;11.978;2023-05-12T04:54:42;96541.00;;;13.07;42.88
25350;BME280;13302;48.796;11.978;2023-05-12T04:57:29;96544.56;;;13.07;42.58
25350;BME280;13302;48.796;11.978;2023-05-12T05:00:17;96544.97;;;13.09;42.55
25350;BME280;13302;48.796;11.978;2023-05-12T05:03:05;96543.00;;;13.10;42.82
25350;BME280;13302;48.796;11.978;2023-05-12T05:05:52;96547.75;;;13.09;42.28
25350;BME280;13302;48.796;11.978;2023-05-12T05:08:40;96546.19;;;13.08;42.62
25350;BME280;13302;48.796;11.978;2023-05-12T05:11:27;96546.97;;;13.09;42.69
25350;BME280;13302;48.796;11.978;2023-05-12T05:14:14;96551.72;;;13.08;42.50
25350;BME280;13302;48.796;11.978;2023-05-12T05:17:02;96547.75;;;13.09;42.59
25350;BME280;13302;48.796;11.978;2023-05-12T05:19:49;96550.16;;;13.11;42.59
25350;BME280;13302;48.796;11.978;2023-05-12T05:22:48;96556.94;;;13.13;42.57
25350;BME280;13302;48.796;11.978;2023-05-12T05:25:35;96560.09;;;13.12;42.48
25350;BME280;13302;48.796;11.978;2023-05-12T05:28:22;96570.81;;;13.13;42.75
25350;BME280;13302;48.796;11.978;2023-05-12T05:31:14;96581.91;;;13.13;42.54
25350;BME280;13302;48.796;11.978;2023-05-12T05:34:02;96573.22;;;13.15;42.90
25350;BME280;13302;48.796;11.978;2023-05-12T05:36:49;96575.19;;;13.14;42.59
25350;BME280;13302;48.796;11.978;2023-05-12T05:39:36;96572.84;;;13.16;42.62
25350;BME280;13302;48.796;11.978;2023-05-12T05:42:23;96576.34;;;13.13;42.91
25350;BME280;13302;48.796;11.978;2023-05-12T05:45:12;96577.97;;;13.14;43.16
25350;BME280;13302;48.796;11.978;2023-05-12T05:47:59;96580.69;;;13.11;42.92
25350;BME280;13302;48.796;11.978;2023-05-12T05:50:46;96585.06;;;13.12;43.16
25350;BME280;13302;48.796;11.978;2023-05-12T05:53:34;96578.72;;;13.11;42.83
25350;BME280;13302;48.796;11.978;2023-05-12T05:56:21;96583.91;;;13.13;42.93
25350;BME280;13302;48.796;11.978;2023-05-12T05:59:08;96578.78;;;13.15;42.90
25350;BME280;13302;48.796;11.978;2023-05-12T06:01:57;96587.09;;;13.15;42.62
25350;BME280;13302;48.796;11.978;2023-05-12T06:04:44;96587.09;;;13.15;42.84
25350;BME280;13302;48.796;11.978;2023-05-12T06:07:32;96597.03;;;13.16;42.81
25350;BME280;13302;48.796;11.978;2023-05-12T06:10:19;96588.72;;;13.16;43.06
25350;BME280;13302;48.796;11.978;2023-05-12T06:13:07;96595.06;;;13.16;43.15
25350;BME280;13302;48.796;11.978;2023-05-12T06:15:54;96592.28;;;13.16;42.93
25350;BME280;13302;48.796;11.978;2023-05-12T06:18:41;96598.63;;;13.17;43.18
25350;BME280;13302;48.796;11.978;2023-05-12T06:21:28;96610.47;;;13.14;43.00
25350;BME280;13302;48.796;11.978;2023-05-12T06:24:15;96604.13;;;13.13;42.92
25350;BME280;13302;48.796;11.978;2023-05-12T06:27:02;96603.34;;;13.13;42.98
25350;BME280;13302;48.796;11.978;2023-05-12T06:29:50;96607.31;;;13.15;43.36
25350;BME280;13302;48.796;11.978;2023-05-12T06:32:37;96610.91;;;13.16;43.02
25350;BME280;13302;48.796;11.978;2023-05-12T06:35:25;96615.22;;;13.13;43.48
25350;BME280;13302;48.796;11.978;2023-05-12T06:38:12;96614.06;;;13.14;42.95
25350;BME280;13302;48.796;11.978;2023-05-12T06:40:58;96610.53;;;13.17;43.37
25350;BME280;13302;48.796;11.978;2023-05-12T06:43:46;96610.53;;;13.17;43.00
25350;BME280;13302;48.796;11.978;2023-05-12T06:46:33;96615.28;;;13.17;43.24
25350;BME280;13302;48.796;11.978;2023-05-12T06:49:20;96623.22;;;13.18;43.28
25350;BME280;13302;48.796;11.978;2023-05-12T06:52:07;96617.31;;;13.20;43.20
25350;BME280;13302;48.796;11.978;2023-05-12T06:54:54;96620.09;;;13.20;43.26
25350;BME280;13302;48.796;11.978;2023-05-12T06:57:41;96617.72;;;13.22;43.07
25350;BME280;13302;48.796;11.978;2023-05-12T07:00:28;96619.28;;;13.19;43.19
25350;BME280;13302;48.796;11.978;2023-05-12T07:03:15;96612.16;;;13.22;43.22
25350;BME280;13302;48.796;11.978;2023-05-12T07:06:02;96618.16;;;13.24;43.40
25350;BME280;13302;48.796;11.978;2023-05-12T07:08:49;96611.84;;;13.27;43.58
25350;BME280;13302;48.796;11.978;2023-05-12T07:11:36;96625.75;;;13.27;43.52
25350;BME280;13302;48.796;11.978;2023-05-12T07:14:23;96626.97;;;13.29;43.38
25350;BME280;13302;48.796;11.978;2023-05-12T07:17:10;96630.63;;;13.33;43.54
25350;BME280;13302;48.796;11.978;2023-05-12T07:19:57;96624.69;;;13.35;43.51
25350;BME280;13302;48.796;11.978;2023-05-12T07:22:44;96628.28;;;13.36;43.59
25350;BME280;13302;48.796;11.978;2023-05-12T07:25:31;96625.13;;;13.37;43.45
25350;BME280;13302;48.796;11.978;2023-05-12T07:28:19;96628.31;;;13.39;43.19
25350;BME280;13302;48.796;11.978;2023-05-12T07:31:06;96627.53;;;13.39;43.54
25350;BME280;13302;48.796;11.978;2023-05-12T07:33:54;96629.13;;;13.40;43.35
25350;BME280;13302;48.796;11.978;2023-05-12T07:36:41;96635.47;;;13.40;43.23
25350;BME280;13302;48.796;11.978;2023-05-12T07:39:28;96626.34;;;13.40;43.25
25350;BME280;13302;48.796;11.978;2023-05-12T07:42:18;96629.13;;;13.40;43.28
25350;BME280;13302;48.796;11.978;2023-05-12T07:45:05;96629.56;;;13.42;43.65
25350;BME280;13302;48.796;11.978;2023-05-12T07:47:52;96633.91;;;13.43;43.26
25350;BME280;13302;48.796;11.978;2023-05-12T07:50:39;96634.38;;;13.45;43.36
25350;BME280;13302;48.796;11.978;2023-05-12T07:53:26;96627.63;;;13.46;43.30
25350;BME280;13302;48.796;11.978;2023-05-12T07:56:13;96629.66;;;13.49;43.67
25350;BME280;13302;48.796;11.978;2023-05-12T07:59:01;96634.41;;;13.48;43.61
25350;BME280;13302;48.796;11.978;2023-05-12T08:01:48;96630.47;;;13.49;43.56
25350;BME280;13302;48.796;11.978;2023-05-12T08:04:35;96634.03;;;13.50;43.24
25350;BME280;13302;48.796;11.978;2023-05-12T08:07:22;96630.81;;;13.48;43.53
25350;BME280;13302;48.796;11.978;2023-05-12T08:10:12;96630.03;;;13.47;43.50
25350;BME280;13302;48.796;11.978;2023-05-12T08:12:59;96638.00;;;13.49;43.21
25350;BME280;13302;48.796;11.978;2023-05-12T08:15:48;96636.00;;;13.49;43.31
25350;BME280;13302;48.796;11.978;2023-05-12T08:18:35;96631.63;;;13.48;43.60
25350;BME280;13302;48.796;11.978;2023-05-12T08:21:22;96642.38;;;13.50;43.73
25350;BME280;13302;48.796;11.978;2023-05-12T08:24:09;96636.44;;;13.51;43.43
25350;BME280;13302;48.796;11.978;2023-05-12T08:26:56;96636.44;;;13.51;43.54
25350;BME280;13302;48.796;11.978;2023-05-12T08:29:43;96638.03;;;13.52;43.26
25350;BME280;13302;48.796;11.978;2023-05-12T08:32:30;96636.88;;;13.53;43.16
25350;BME280;13302;48.796;11.978;2023-05-12T08:35:18;96639.66;;;13.53;43.45
25350;BME280;13302;48.796;11.978;2023-05-12T08:38:05;96636.06;;;13.53;43.35
25350;BME280;13302;48.796;11.978;2023-05-12T08:41:01;96638.44;;;13.54;43.34
25350;BME280;13302;48.796;11.978;2023-05-12T08:43:54;96640.06;;;13.55;43.01
25350;BME280;13302;48.796;11.978;2023-05-12T08:46:42;96651.97;;;13.56;43.44
25350;BME280;13302;48.796;11.978;2023-05-12T08:49:30;96646.00;;;13.54;43.14
25350;BME280;13302;48.796;11.978;2023-05-12T08:52:18;96650.34;;;13.55;43.40
25350;BME280;13302;48.796;11.978;2023-05-12T08:55:08;96647.22;;;13.56;43.26
25350;BME280;13302;48.796;11.978;2023-05-12T08:57:57;96655.97;;;13.58;43.48
25350;BME280;13302;48.796;11.978;2023-05-12T09:00:44;96650.03;;;13.60;43.32
25350;BME280;13302;48.796;11.978;2023-05-12T09:03:33;96656.03;;;13.62;43.46
25350;BME280;13302;48.796;11.978;2023-05-12T09:06:20;96660.38;;;13.63;43.49
25350;BME280;13302;48.796;11.978;2023-05-12T09:09:08;96662.44;;;13.66;43.33
25350;BME280;13302;48.796;11.978;2023-05-12T09:11:55;96664.41;;;13.65;43.38
25350;BME280;13302;48.796;11.978;2023-05-12T09:14:44;96659.25;;;13.67;43.39
25350;BME280;13302;48.796;11.978;2023-05-12T09:17:34;96661.69;;;13.69;43.14
25350;BME280;13302;48.796;11.978;2023-05-12T09:20:25;96667.19;;;13.65;43.25
25350;BME280;13302;48.796;11.978;2023-05-12T09:23:19;96671.13;;;13.64;43.31
25350;BME280;13302;48.796;11.978;2023-05-12T09:26:06;96665.22;;;13.66;43.08
25350;BME280;13302;48.796;11.978;2023-05-12T09:29:02;96668.72;;;13.63;43.40
25350;BME280;13302;48.796;11.978;2023-05-12T09:31:53;96668.31;;;13.61;43.41
25350;BME280;13302;48.796;11.978;2023-05-12T09:34:42;96665.91;;;13.59;43.36
25350;BME280;13302;48.796;11.978;2023-05-12T09:37:30;96667.88;;;13.59;43.55
25350;BME280;13302;48.796;11.978;2023-05-12T09:40:18;96666.69;;;13.60;43.22
25350;BME280;13302;48.796;11.978;2023-05-12T09:43:05;96683.81;;;13.62;43.39
25350;BME280;13302;48.796;11.978;2023-05-12T09:45:53;96681.03;;;13.62;43.28
25350;BME280;13302;48.796;11.978;2023-05-12T09:48:41;96674.66;;;13.61;43.05
25350;BME280;13302;48.796;11.978;2023-05-12T09:51:28;96675.03;;;13.60;43.38
25350;BME280;13302;48.796;11.978;2023-05-12T09:54:27;96680.94;;;13.58;43.14
25350;BME280;13302;48.796;11.978;2023-05-12T09:57:15;96678.97;;;13.59;43.24
25350;BME280;13302;48.796;11.978;2023-05-12T10:00:02;96674.63;;;13.58;43.43
25350;BME280;13302;48.796;11.978;2023-05-12T10:02:57;96665.50;;;13.57;43.50
25350;BME280;13302;48.796;11.978;2023-05-12T10:06:05;96676.97;;;13.56;43.24
25350;BME280;13302;48.796;11.978;2023-05-12T10:09:08;96682.50;;;13.56;43.36
25350;BME280;13302;48.796;11.978;2023-05-12T10:11:58;96678.56;;;13.57;43.54
25350;BME280;13302;48.796;11.978;2023-05-12T10:14:46;96681.72;;;13.55;43.26
25350;BME280;13302;48.796;11.978;2023-05-12T10:17:34;96677.75;;;13.56;43.55
25350;BME280;13302;48.796;11.978;2023-05-12T10:20:22;96681.41;;;13.60;43.30
25350;BME280;13302;48.796;11.978;2023-05-12T10:23:11;96683.38;;;13.60;43.63
25350;BME280;13302;48.796;11.978;2023-05-12T10:25:59;96681.44;;;13.64;43.64
25350;BME280;13302;48.796;11.978;2023-05-12T10:28:49;96681.44;;;13.64;43.55
25350;BME280;13302;48.796;11.978;2023-05-12T10:31:37;96683.47;;;13.67;43.58
25350;BME280;13302;48.796;11.978;2023-05-12T10:34:35;96676.31;;;13.66;43.20
25350;BME280;13302;48.796;11.978;2023-05-12T10:37:23;96687.47;;;13.69;43.26
25350;BME280;13302;48.796;11.978;2023-05-12T10:40:10;96691.13;;;13.73;43.30
25350;BME280;13302;48.796;11.978;2023-05-12T10:42:58;96691.16;;;13.77;43.33
25350;BME280;13302;48.796;11.978;2023-05-12T10:45:46;96685.63;;;13.80;43.30
25350;BME280;13302;48.796;11.978;2023-05-12T10:48:33;96686.84;;;13.83;43.66
25350;BME280;13302;48.796;11.978;2023-05-12T10:51:22;96683.34;;;13.86;43.56
25350;BME280;13302;48.796;11.978;2023-05-12T10:54:17;96690.13;;;13.89;43.22
25350;BME280;13302;48.796;11.978;2023-05-12T10:57:14;96692.53;;;13.90;43.25
25350;BME280;13302;48.796;11.978;2023-05-12T11:00:10;96691.78;;;13.93;43.30
25350;BME280;13302;48.796;11.978;2023-05-12T11:03:01;96689.41;;;13.95;43.35
25350;BME280;13302;48.796;11.978;2023-05-12T11:06:00;96695.75;;;13.96;43.45
25350;BME280;13302;48.796;11.978;2023-05-12T11:08:49;96698.16;;;13.97;43.19
25350;BME280;13302;48.796;11.978;2023-05-12T11:11:37;96685.88;;;13.98;43.39
25350;BME280;13302;48.796;11.978;2023-05-12T11:14:24;96691.44;;;13.98;43.04
25350;BME280;13302;48.796;11.978;2023-05-12T11:17:12;96694.22;;;13.98;43.13
25350;BME280;13302;48.796;11.978;2023-05-12T11:19:59;96694.22;;;13.98;43.13
25350;BME280;13302;48.796;11.978;2023-05-12T11:22:48;96692.25;;;13.99;43.47
25350;BME280;13302;48.796;11.978;2023-05-12T11:25:35;96696.25;;;14.01;43.28
25350;BME280;13302;48.796;11.978;2023-05-12T11:28:22;96696.28;;;14.05;43.30
25350;BME280;13302;48.796;11.978;2023-05-12T11:31:19;96691.53;;;14.05;43.37
25350;BME280;13302;48.796;11.978;2023-05-12T11:34:07;96693.97;;;14.10;43.37
25350;BME280;13302;48.796;11.978;2023-05-12T11:36:59;96693.25;;;14.13;43.32
25350;BME280;13302;48.796;11.978;2023-05-12T11:39:46;96698.84;;;14.17;43.18
25350;BME280;13302;48.796;11.978;2023-05-12T11:42:33;96700.09;;;14.19;43.22
25350;BME280;13302;48.796;11.978;2023-05-12T11:45:25;96696.53;;;14.22;42.84
25350;BME280;13302;48.796;11.978;2023-05-12T11:48:14;96699.34;;;14.26;42.97
25350;BME280;13302;48.796;11.978;2023-05-12T11:51:02;96689.44;;;14.29;43.02
25350;BME280;13302;48.796;11.978;2023-05-12T11:53:51;96702.97;;;14.30;42.77
25350;BME280;13302;48.796;11.978;2023-05-12T11:56:49;96706.16;;;14.32;42.86
25350;BME280;13302;48.796;11.978;2023-05-12T11:59:36;96705.00;;;14.33;42.59
25350;BME280;13302;48.796;11.978;2023-05-12T12:02:23;96710.19;;;14.35;42.62
25350;BME280;13302;48.796;11.978;2023-05-12T12:05:17;96713.75;;;14.32;42.43
25350;BME280;13302;48.796;11.978;2023-05-12T12:08:06;96706.97;;;14.33;42.16
25350;BME280;13302;48.796;11.978;2023-05-12T12:10:53;96714.13;;;14.34;42.09
25350;BME280;13302;48.796;11.978;2023-05-12T12:13:47;96712.53;;;14.33;42.10
25350;BME280;13302;48.796;11.978;2023-05-12T12:16:35;96721.69;;;14.33;42.15
25350;BME280;13302;48.796;11.978;2023-05-12T12:19:22;96714.13;;;14.34;42.23
25350;BME280;13302;48.796;11.978;2023-05-12T12:22:09;96720.88;;;14.33;42.36
25350;BME280;13302;48.796;11.978;2023-05-12T12:24:56;96717.72;;;14.34;42.21
25350;BME280;13302;48.796;11.978;2023-05-12T12:27:43;96732.81;;;14.33;42.15
25350;BME280;13302;48.796;11.978;2023-05-12T12:30:30;96736.75;;;14.32;42.17
25350;BME280;13302;48.796;11.978;2023-05-12T12:33:17;96737.53;;;14.29;41.89
25350;BME280;13302;48.796;11.978;2023-05-12T12:36:06;96738.28;;;14.26;41.89
25350;BME280;13302;48.796;11.978;2023-05-12T12:38:53;96730.72;;;14.23;41.89
25350;BME280;13302;48.796;11.978;2023-05-12T12:41:40;96729.47;;;14.20;42.22
25350;BME280;13302;48.796;11.978;2023-05-12T12:44:29;96739.75;;;14.16;41.85
25350;BME280;13302;48.796;11.978;2023-05-12T12:47:16;96734.13;;;14.13;42.03
25350;BME280;13302;48.796;11.978;2023-05-12T12:50:05;96735.69;;;14.10;42.11
25350;BME280;13302;48.796;11.978;2023-05-12T12:52:53;96728.88;;;14.08;42.10
25350;BME280;13302;48.796;11.978;2023-05-12T12:55:40;96735.63;;;14.07;41.88
25350;BME280;13302;48.796;11.978;2023-05-12T12:58:27;96739.59;;;14.06;42.07
25350;BME280;13302;48.796;11.978;2023-05-12T13:01:15;96743.53;;;14.05;42.27
25350;BME280;13302;48.796;11.978;2023-05-12T13:04:02;96741.91;;;14.04;42.00
25350;BME280;13302;48.796;11.978;2023-05-12T13:06:50;96743.13;;;14.03;42.25
25350;BME280;13302;48.796;11.978;2023-05-12T13:09:37;96740.72;;;14.01;42.38
25350;BME280;13302;48.796;11.978;2023-05-12T13:12:25;96741.88;;;14.00;42.27
25350;BME280;13302;48.796;11.978;2023-05-12T13:15:12;96739.09;;;14.00;42.51
25350;BME280;13302;48.796;11.978;2023-05-12T13:17:59;96735.50;;;14.00;42.47
25350;BME280;13302;48.796;11.978;2023-05-12T13:20:46;96741.88;;;14.00;42.20
25350;BME280;13302;48.796;11.978;2023-05-12T13:23:33;96748.25;;;14.01;42.56
25350;BME280;13302;48.796;11.978;2023-05-12T13:26:20;96736.72;;;13.99;42.55
25350;BME280;13302;48.796;11.978;2023-05-12T13:29:08;96731.56;;;14.01;42.50
25350;BME280;13302;48.796;11.978;2023-05-12T13:31:55;96733.19;;;14.02;42.39
25350;BME280;13302;48.796;11.978;2023-05-12T13:34:42;96733.97;;;14.02;42.60
25350;BME280;13302;48.796;11.978;2023-05-12T13:37:30;96733.97;;;14.02;42.30
25350;BME280;13302;48.796;11.978;2023-05-12T13:40:17;96743.94;;;14.03;42.36
25350;BME280;13302;48.796;11.978;2023-05-12T13:43:04;96739.59;;;14.06;42.41
25350;BME280;13302;48.796;11.978;2023-05-12T13:45:51;96730.44;;;14.05;42.30
25350;BME280;13302;48.796;11.978;2023-05-12T13:48:38;96731.25;;;14.06;42.66
25350;BME280;13302;48.796;11.978;2023-05-12T13:51:25;96740.38;;;14.06;42.61
25350;BME280;13302;48.796;11.978;2023-05-12T13:54:12;96736.44;;;14.07;42.40
25350;BME280;13302;48.796;11.978;2023-05-12T13:56:59;96735.25;;;14.08;42.61
25350;BME280;13302;48.796;11.978;2023-05-12T13:59:50;96740.00;;;14.08;42.29
25350;BME280;13302;48.796;11.978;2023-05-12T14:02:38;96738.81;;;14.09;42.39
25350;BME280;13302;48.796;11.978;2023-05-12T14:05:25;96740.00;;;14.08;42.09
25350;BME280;13302;48.796;11.978;2023-05-12T14:08:13;96742.78;;;14.08;42.48
25350;BME280;13302;48.796;11.978;2023-05-12T14:11:00;96742.00;;;14.07;42.42
25350;BME280;13302;48.796;11.978;2023-05-12T14:13:47;96734.03;;;14.06;42.20
25350;BME280;13302;48.796;11.978;2023-05-12T14:16:34;96733.22;;;14.05;42.29
25350;BME280;13302;48.796;11.978;2023-05-12T14:19:21;96736.00;;;14.05;42.37
25350;BME280;13302;48.796;11.978;2023-05-12T14:22:08;96735.19;;;14.05;42.58
25350;BME280;13302;48.796;11.978;2023-05-12T14:25:10;96741.91;;;14.04;42.54
25350;BME280;13302;48.796;11.978;2023-05-12T14:27:58;96743.94;;;14.03;42.82
25350;BME280;13302;48.796;11.978;2023-05-12T14:30:45;96736.00;;;14.05;42.35
25350;BME280;13302;48.796;11.978;2023-05-12T14:33:34;96738.41;;;14.07;42.28
25350;BME280;13302;48.796;11.978;2023-05-12T14:36:21;96743.56;;;14.08;42.63
25350;BME280;13302;48.796;11.978;2023-05-12T14:39:08;96742.84;;;14.11;42.47
25350;BME280;13302;48.796;11.978;2023-05-12T14:41:55;96751.63;;;14.13;42.27